Time;durP1;ratioP1;P1;durP2;ratioP2;P2;SDS_P1;SDS_P2;PMS_P1;PMS_P2;Temp;Humidity;BMP_temperature;BMP_pressure;BME280_temperature;BME280_humidity;BME280_pressure;Samples;Min_cycle;Max_cycle;Signal;HPM_P1;HPM_P2
2023/09/07 00:02:24;;;;;;;4.47;3.57;;;;;;;20.88;70.75;101223.25;5090495;28;20749;-75
2023/09/07 00:04:50;;;;;;;3.80;3.50;;;;;;;20.79;70.69;101228.09;5091140;28;20224;-75
2023/09/07 00:07:17;;;;;;;3.70;3.40;;;;;;;20.72;71.22;101217.84;5091949;28;20199;-75
2023/09/07 00:09:46;;;;;;;3.43;3.23;;;;;;;20.70;71.25;101209.97;5091354;28;20216;-75
2023/09/07 00:12:13;;;;;;;4.30;3.57;;;;;;;20.67;71.31;101219.84;5085480;28;20591;-75
2023/09/07 00:14:40;;;;;;;4.13;3.63;;;;;;;20.65;71.69;101208.47;5089476;28;20243;-75
2023/09/07 00:17:07;;;;;;;3.80;3.50;;;;;;;20.63;71.81;101198.81;5091418;28;20200;-75
2023/09/07 00:19:33;;;;;;;4.00;3.60;;;;;;;20.59;71.74;101204.31;5091110;28;20215;-75
2023/09/07 00:22:00;;;;;;;4.17;3.53;;;;;;;20.55;71.75;101206.22;5091432;28;20587;-75
2023/09/07 00:24:26;;;;;;;3.30;3.10;;;;;;;20.54;71.81;101206.31;5091473;28;20553;-75
2023/09/07 00:26:54;;;;;;;3.83;3.53;;;;;;;20.56;71.88;101201.78;5090917;28;20208;-75
2023/09/07 00:29:22;;;;;;;3.57;3.27;;;;;;;20.56;71.61;101201.78;5094193;28;20200;-75
2023/09/07 00:31:48;;;;;;;3.73;3.27;;;;;;;20.51;71.68;101207.31;5095327;28;20257;-75
2023/09/07 00:34:15;;;;;;;4.50;3.37;;;;;;;20.51;71.97;101199.34;5094682;28;20702;-76
2023/09/07 00:36:42;;;;;;;5.80;3.50;;;;;;;20.43;72.23;101197.09;5094941;28;20204;-75
2023/09/07 00:39:09;;;;;;;3.83;3.53;;;;;;;20.36;72.81;101190.34;5095341;28;20200;-75
2023/09/07 00:41:35;;;;;;;4.03;3.73;;;;;;;20.33;72.72;101192.28;5095763;28;20200;-75
2023/09/07 00:44:04;;;;;;;3.70;3.30;;;;;;;20.29;72.70;101186.25;5095051;28;20223;-75
2023/09/07 00:46:30;;;;;;;3.80;3.13;;;;;;;20.26;73.69;101178.47;5095182;28;20662;-75
2023/09/07 00:48:58;;;;;;;4.10;3.70;;;;;;;20.28;73.02;101173.94;5094592;28;20204;-75
2023/09/07 00:51:24;;;;;;;3.53;3.23;;;;;;;20.21;73.84;101168.06;5088291;28;20209;-75
2023/09/07 00:53:51;;;;;;;4.27;3.67;;;;;;;20.18;73.85;101160.28;5093715;28;20228;-75
2023/09/07 00:56:18;;;;;;;4.87;3.20;;;;;;;20.14;74.75;101148.09;5094464;28;20211;-76
2023/09/07 00:58:44;;;;;;;6.10;3.30;;;;;;;20.09;74.97;101134.19;5095149;28;20200;-75
2023/09/07 01:01:12;;;;;;;3.67;3.37;;;;;;;20.04;74.85;101133.56;5095473;28;20196;-76
2023/09/07 01:03:39;;;;;;;4.10;3.70;;;;;;;20.00;75.12;101126.69;5094270;28;20232;-75
2023/09/07 01:06:13;;;;;;;4.07;3.77;;;;;;;19.99;75.14;101130.25;5095277;28;20200;-75
2023/09/07 01:08:43;;;;;;;4.33;4.03;;;;;;;19.94;75.57;101129.59;5094185;28;20211;-75
2023/09/07 01:11:16;;;;;;;5.47;3.50;;;;;;;19.97;75.72;101124.19;5094594;28;20650;-75
2023/09/07 01:13:43;;;;;;;4.50;4.17;;;;;;;19.97;76.11;101108.28;5094497;28;20235;-75
2023/09/07 01:16:13;;;;;;;6.77;4.20;;;;;;;20.03;76.13;101107.97;5095153;28;20206;-75
2023/09/07 01:18:40;;;;;;;5.10;4.70;;;;;;;19.98;75.90;101105.56;5094003;28;20212;-75
2023/09/07 01:21:08;;;;;;;4.83;4.40;;;;;;;19.95;75.86;101112.78;5094646;28;20208;-75
2023/09/07 01:23:37;;;;;;;6.20;4.90;;;;;;;19.91;76.12;101109.41;5094417;28;20285;-75
2023/09/07 01:26:06;;;;;;;4.73;4.33;;;;;;;19.91;75.85;101108.56;5087048;28;20212;-75
2023/09/07 01:28:33;;;;;;;5.87;4.10;;;;;;;19.87;75.44;101128.19;5094161;28;20211;-75
2023/09/07 01:31:01;;;;;;;6.23;4.40;;;;;;;19.81;74.94;101140.78;5094910;28;20204;-75
2023/09/07 01:33:27;;;;;;;4.50;4.10;;;;;;;19.78;75.29;101146.25;5093598;28;20690;-75
2023/09/07 01:35:54;;;;;;;4.73;4.30;;;;;;;19.72;75.68;101132.41;5094506;28;20554;-75
2023/09/07 01:38:20;;;;;;;5.30;4.50;;;;;;;19.72;75.54;101135.06;5093832;28;20203;-75
2023/09/07 01:40:48;;;;;;;5.37;4.90;;;;;;;19.71;75.59;101134.19;5093829;28;20208;-75
2023/09/07 01:43:15;;;;;;;7.63;4.57;;;;;;;19.60;76.28;101124.06;5093389;28;20228;-75
2023/09/07 01:45:41;;;;;;;4.83;4.37;;;;;;;19.58;76.26;101119.75;5094365;28;20212;-75
2023/09/07 01:48:10;;;;;;;5.17;4.67;;;;;;;19.58;76.36;101117.09;5093317;28;20204;-75
2023/09/07 01:50:37;;;;;;;7.83;4.30;;;;;;;19.54;76.44;101112.88;5093782;28;20200;-75
2023/09/07 01:53:04;;;;;;;5.60;4.33;;;;;;;19.48;75.99;101123.75;5084988;28;20273;-75
2023/09/07 01:55:31;;;;;;;4.80;4.40;;;;;;;19.45;77.11;101101.78;5093778;28;20207;-75
2023/09/07 01:57:59;;;;;;;6.30;4.77;;;;;;;19.44;77.26;101107.16;5094186;28;20231;-75
2023/09/07 02:03:03;;;;;;;5.00;4.47;;;;;;;19.40;77.34;101098.47;5657756;22;20233;-80
2023/09/07 02:05:29;;;;;;;5.17;4.77;;;;;;;19.43;77.74;101098.34;5005908;28;20281;-81
2023/09/07 02:07:56;;;;;;;7.87;4.23;;;;;;;19.49;77.51;101099.88;5012809;28;20230;-82
2023/09/07 02:10:23;;;;;;;5.60;4.60;;;;;;;19.53;77.18;101108.53;5010531;28;20215;-81
2023/09/07 02:12:50;;;;;;;4.70;4.40;;;;;;;19.56;76.72;101111.91;5010207;28;20303;-81
2023/09/07 02:15:18;;;;;;;4.57;4.20;;;;;;;19.56;76.55;101122.50;5010686;28;20207;-81
2023/09/07 02:17:44;;;;;;;5.73;4.70;;;;;;;19.61;77.00;101117.84;5010080;28;20718;-82
2023/09/07 02:20:11;;;;;;;4.90;4.50;;;;;;;19.59;76.98;101119.69;5018824;28;20207;-80
2023/09/07 02:22:38;;;;;;;5.17;4.73;;;;;;;19.61;76.68;101119.63;5014274;28;20242;-81
2023/09/07 02:25:06;;;;;;;5.70;4.20;;;;;;;19.64;76.76;101119.47;5014853;28;20268;-80
2023/09/07 02:27:33;;;;;;;4.80;4.30;;;;;;;19.65;76.45;101119.41;5014313;28;20234;-80
2023/09/07 02:29:59;;;;;;;5.33;4.70;;;;;;;19.67;76.27;101124.66;5014499;28;20218;-81
2023/09/07 02:32:27;;;;;;;4.50;4.17;;;;;;;19.63;76.31;101126.56;5014215;28;20230;-80
2023/09/07 02:34:54;;;;;;;5.00;4.53;;;;;;;19.62;76.44;101134.56;5014378;28;20210;-81
2023/09/07 02:37:20;;;;;;;4.70;4.37;;;;;;;19.60;76.30;101139.09;5014200;28;20210;-80
2023/09/07 02:39:47;;;;;;;5.23;4.83;;;;;;;19.57;76.14;101140.09;5023090;28;20210;-80
2023/09/07 02:42:13;;;;;;;4.67;4.27;;;;;;;19.57;76.46;101139.25;5013887;28;20642;-80
2023/09/07 02:44:39;;;;;;;4.67;4.27;;;;;;;19.54;76.68;101134.91;5011381;28;20211;-81
2023/09/07 02:47:06;;;;;;;4.83;4.50;;;;;;;19.55;76.42;101139.31;5017266;28;20826;-81
2023/09/07 02:49:34;;;;;;;5.10;4.40;;;;;;;19.56;77.03;101133.09;5012113;28;20299;-80
2023/09/07 02:52:00;;;;;;;4.80;4.50;;;;;;;19.54;77.25;101121.69;5015698;28;20203;-81
2023/09/07 02:54:27;;;;;;;4.93;4.53;;;;;;;19.55;76.84;101128.72;5014960;28;20210;-82
2023/09/07 02:56:53;;;;;;;5.63;5.07;;;;;;;19.51;76.59;101132.44;5010228;28;20203;-81
2023/09/07 02:59:19;;;;;;;5.23;4.83;;;;;;;19.38;76.66;101133.91;5017816;28;20261;-84
2023/09/07 03:01:46;;;;;;;5.07;4.67;;;;;;;19.31;76.71;101137.75;5017948;28;20269;-81
2023/09/07 03:04:12;;;;;;;4.70;4.37;;;;;;;19.24;76.95;101130.06;5017843;28;20273;-82
2023/09/07 03:06:40;;;;;;;5.13;4.63;;;;;;;19.22;76.91;101133.72;5017796;28;20210;-83
2023/09/07 03:09:08;;;;;;;5.07;4.60;;;;;;;19.14;77.06;101127.91;5017989;28;20210;-83
2023/09/07 03:11:35;;;;;;;4.90;4.50;;;;;;;19.09;77.63;101125.47;5015026;28;20295;-81
2023/09/07 03:14:03;;;;;;;4.97;4.47;;;;;;;19.05;77.54;101113.31;5013516;28;20222;-82
2023/09/07 03:16:30;;;;;;;7.60;4.30;;;;;;;19.02;77.50;101111.63;5012404;28;20645;-80
2023/09/07 03:18:57;;;;;;;5.70;4.90;;;;;;;18.96;77.78;101113.69;5013704;28;20233;-80
2023/09/07 03:21:25;;;;;;;5.77;5.20;;;;;;;18.90;78.37;101103.38;5018536;28;20617;-80
2023/09/07 03:23:53;;;;;;;4.93;4.53;;;;;;;18.91;78.12;101102.44;5017976;28;20231;-80
2023/09/07 03:26:19;;;;;;;5.63;5.20;;;;;;;18.90;77.85;101109.50;5011540;28;20207;-79
2023/09/07 03:28:46;;;;;;;5.70;4.50;;;;;;;18.85;77.94;101109.72;5007106;28;20257;-79
2023/09/07 03:31:12;;;;;;;4.83;4.43;;;;;;;18.81;78.08;101100.19;5015390;28;20203;-81
2023/09/07 03:33:39;;;;;;;5.30;4.90;;;;;;;18.70;77.91;101120.91;5013341;28;20225;-80
2023/09/07 03:36:05;;;;;;;5.37;4.90;;;;;;;18.65;77.46;101120.22;5034658;28;20210;-81
2023/09/07 03:38:32;;;;;;;6.90;6.20;;;;;;;18.54;78.23;101120.69;5018203;28;20222;-83
2023/09/07 03:40:59;;;;;;;5.43;5.03;;;;;;;18.51;78.60;101104.09;5038146;28;20206;-80
2023/09/07 03:43:26;;;;;;;5.00;4.70;;;;;;;18.50;79.12;101102.38;5030012;28;20299;-79
2023/09/07 03:45:53;;;;;;;5.13;4.73;;;;;;;18.55;78.20;101100.38;5022402;28;20688;-80
2023/09/07 03:48:19;;;;;;;4.83;4.47;;;;;;;18.52;78.52;101101.38;5005875;28;20218;-81
2023/09/07 03:50:45;;;;;;;5.23;4.83;;;;;;;18.41;78.02;101115.06;5010341;28;20222;-81
2023/09/07 03:53:12;;;;;;;4.90;4.50;;;;;;;18.39;78.03;101118.66;5017351;28;20277;-80
2023/09/07 03:55:42;;;;;;;5.67;4.40;;;;;;;18.29;77.96;101123.47;5021731;28;20214;-82
2023/09/07 03:58:11;;;;;;;5.37;4.90;;;;;;;18.19;78.30;101133.53;5022003;28;20286;-80
2023/09/07 04:00:39;;;;;;;4.70;4.40;;;;;;;18.15;78.34;101128.44;5016393;28;20203;-81
2023/09/07 04:03:05;;;;;;;5.37;4.87;;;;;;;18.09;78.06;101129.53;5012319;28;20708;-81
2023/09/07 04:05:32;;;;;;;5.03;4.60;;;;;;;18.05;78.02;101131.44;5013754;28;20219;-80
2023/09/07 04:07:59;;;;;;;5.50;5.00;;;;;;;17.99;78.08;101128.19;5013466;28;20207;-82
2023/09/07 04:10:25;;;;;;;5.17;4.63;;;;;;;17.97;78.28;101117.66;5002020;28;20215;-80
2023/09/07 04:12:52;;;;;;;5.67;5.07;;;;;;;17.93;78.25;101123.13;5013087;28;20257;-80
2023/09/07 04:15:19;;;;;;;6.17;5.67;;;;;;;17.87;78.46;101124.22;5013295;28;20228;-82
2023/09/07 04:17:46;;;;;;;5.07;4.67;;;;;;;17.82;78.53;101124.38;5013717;28;20206;-82
2023/09/07 04:20:13;;;;;;;5.20;4.73;;;;;;;17.82;78.53;101129.66;5013343;28;20828;-80
2023/09/07 04:22:39;;;;;;;5.70;5.20;;;;;;;17.77;79.18;101117.56;5021537;28;20248;-82
2023/09/07 04:25:06;;;;;;;4.87;4.47;;;;;;;17.82;79.34;101108.53;5013412;28;20295;-81
2023/09/07 04:27:33;;;;;;;5.60;4.97;;;;;;;17.82;79.86;101099.75;5013580;28;20207;-81
2023/09/07 04:29:59;;;;;;;5.23;4.83;;;;;;;17.80;80.35;101086.59;5013078;28;20264;-80
2023/09/07 04:32:27;;;;;;;5.60;5.20;;;;;;;17.80;81.29;101061.97;5020955;28;20264;-82
2023/09/07 04:34:55;;;;;;;6.00;5.50;;;;;;;17.75;82.46;101037.53;5012561;28;20206;-80
2023/09/07 04:37:22;;;;;;;5.57;5.07;;;;;;;17.72;81.64;101045.56;5021389;28;20874;-81
2023/09/07 04:39:51;;;;;;;5.50;5.10;;;;;;;17.69;80.85;101048.34;5013130;28;20207;-81
2023/09/07 04:42:17;;;;;;;5.53;5.13;;;;;;;17.70;80.54;101073.81;5012883;28;20229;-81
2023/09/07 04:44:44;;;;;;;6.07;5.57;;;;;;;17.61;80.56;101080.31;5012983;28;20293;-80
2023/09/07 04:47:10;;;;;;;5.33;4.93;;;;;;;17.62;80.49;101082.00;5013175;28;20214;-80
2023/09/07 04:49:38;;;;;;;5.33;4.93;;;;;;;17.65;80.60;101082.75;5012939;28;20238;-81
2023/09/07 04:52:06;;;;;;;5.73;5.27;;;;;;;17.70;80.37;101079.09;5012812;28;20256;-81
2023/09/07 04:54:33;;;;;;;7.33;5.60;;;;;;;17.63;80.20;101091.66;5014528;28;20219;-84
2023/09/07 04:56:59;;;;;;;6.00;5.50;;;;;;;17.70;81.03;101082.59;5026557;28;20198;-82
2023/09/07 04:59:27;;;;;;;5.63;5.23;;;;;;;17.74;81.29;101078.94;5024310;28;20221;-81
2023/09/07 05:01:53;;;;;;;6.17;5.70;;;;;;;17.68;81.16;101079.16;5013138;28;20206;-80
2023/09/07 05:04:19;;;;;;;5.57;5.20;;;;;;;17.60;81.28;101073.28;5020354;28;20735;-82
2023/09/07 05:06:47;;;;;;;6.33;5.70;;;;;;;17.62;81.85;101067.06;5013330;28;20260;-81
2023/09/07 05:09:13;;;;;;;5.93;5.43;;;;;;;17.70;81.46;101072.03;5013542;28;20214;-80
2023/09/07 05:11:40;;;;;;;5.70;5.30;;;;;;;17.72;81.00;101080.78;5013590;28;20592;-83
2023/09/07 05:14:06;;;;;;;6.77;6.30;;;;;;;17.67;81.23;101085.34;5013719;28;20226;-82
2023/09/07 05:16:33;;;;;;;6.00;5.50;;;;;;;17.62;81.70;101076.72;5017012;28;20214;-82
2023/09/07 05:18:59;;;;;;;5.83;5.30;;;;;;;17.60;81.98;101063.63;5016019;28;20554;-80
2023/09/07 05:21:26;;;;;;;5.93;5.43;;;;;;;17.60;82.41;101055.69;5016748;28;20209;-80
2023/09/07 05:23:54;;;;;;;5.27;4.87;;;;;;;17.60;82.86;101045.13;5016119;28;20268;-81
2023/09/07 05:26:24;;;;;;;5.83;5.43;;;;;;;17.58;82.71;101046.97;5024712;28;20216;-80
2023/09/07 05:28:50;;;;;;;5.87;5.37;;;;;;;17.64;83.19;101038.81;5008014;28;20202;-82
2023/09/07 05:31:17;;;;;;;5.67;5.23;;;;;;;17.69;83.09;101043.06;5023504;28;20222;-80
2023/09/07 05:33:43;;;;;;;5.93;4.97;;;;;;;17.67;83.06;101043.97;5024947;28;20222;-83
2023/09/07 05:36:11;;;;;;;6.03;5.40;;;;;;;17.71;83.12;101046.50;5025044;28;20201;-82
2023/09/07 05:38:37;;;;;;;6.97;5.37;;;;;;;17.78;83.35;101042.66;5017469;28;20688;-83
2023/09/07 05:41:05;;;;;;;5.80;5.40;;;;;;;17.86;83.89;101033.59;5016492;28;20237;-82
2023/09/07 05:43:31;;;;;;;6.37;5.63;;;;;;;17.94;84.91;101011.25;5016392;28;20237;-82
2023/09/07 05:45:58;;;;;;;5.83;5.43;;;;;;;18.04;85.42;100996.78;5016223;28;20203;-81
2023/09/07 05:48:24;;;;;;;5.33;4.83;;;;;;;18.09;85.74;100984.22;5015968;28;20210;-81
2023/09/07 05:50:51;;;;;;;6.10;5.70;;;;;;;18.13;85.73;100995.53;5016826;28;20203;-80
2023/09/07 05:53:19;;;;;;;5.70;5.20;;;;;;;18.19;86.08;100985.56;5016461;28;20226;-82
2023/09/07 05:55:45;;;;;;;5.20;4.80;;;;;;;18.25;85.87;100982.69;5024760;28;20693;-81
2023/09/07 05:58:14;;;;;;;4.90;4.60;;;;;;;18.30;85.06;101000.97;5016168;28;20210;-82
2023/09/07 06:00:43;;;;;;;5.37;4.90;;;;;;;18.34;84.39;101012.28;5016794;28;20214;-81
2023/09/07 06:03:10;;;;;;;5.73;5.33;;;;;;;18.32;84.44;101020.28;5016482;28;20229;-84
2023/09/07 06:05:39;;;;;;;5.87;5.37;;;;;;;18.37;84.34;101028.84;5017546;28;20700;-82
2023/09/07 06:08:07;;;;;;;5.73;5.23;;;;;;;18.26;84.89;101026.66;5016412;28;20403;-83
2023/09/07 06:10:33;;;;;;;5.90;5.47;;;;;;;18.35;85.25;101014.00;5015904;28;20277;-83
2023/09/07 06:13:00;;;;;;;6.20;5.67;;;;;;;18.33;85.24;101024.63;5015972;28;20257;-83
2023/09/07 06:15:28;;;;;;;5.73;5.10;;;;;;;18.37;85.71;101020.06;5015643;28;20213;-84
2023/09/07 06:17:55;;;;;;;5.30;4.80;;;;;;;18.39;86.13;101008.53;5020145;28;20241;-82
2023/09/07 06:20:21;;;;;;;7.20;5.53;;;;;;;18.49;86.20;101014.25;5020834;28;20720;-83
2023/09/07 06:22:49;;;;;;;6.67;6.27;;;;;;;18.41;84.82;101040.16;5011614;28;20720;-83
2023/09/07 06:25:15;;;;;;;6.10;5.57;;;;;;;18.43;84.98;101049.75;5016720;28;20233;-83
2023/09/07 06:27:41;;;;;;;6.30;5.83;;;;;;;18.49;86.40;101027.47;5016935;28;20216;-83
2023/09/07 06:30:09;;;;;;;7.57;6.87;;;;;;;18.52;85.20;101037.06;5023290;28;20203;-83
2023/09/07 06:32:38;;;;;;;6.90;6.37;;;;;;;18.75;86.21;101018.44;5024138;28;20237;-81
2023/09/07 06:35:05;;;;;;;5.63;5.13;;;;;;;18.92;87.33;101007.13;5021114;28;20686;-82
2023/09/07 06:37:32;;;;;;;6.33;5.83;;;;;;;19.02;85.42;101016.38;5018334;28;20562;-82
2023/09/07 06:39:58;;;;;;;5.80;5.40;;;;;;;19.07;85.00;101041.75;5015400;28;20665;-82
2023/09/07 06:42:25;;;;;;;6.10;5.60;;;;;;;18.96;84.02;101069.56;5015740;28;20231;-80
2023/09/07 06:44:52;;;;;;;6.37;5.77;;;;;;;18.85;84.26;101069.19;5014879;28;20641;-82
2023/09/07 06:47:18;;;;;;;5.87;5.47;;;;;;;18.71;84.39;101082.97;5015807;28;20206;-80
2023/09/07 06:49:46;;;;;;;6.33;5.73;;;;;;;18.68;85.10;101066.38;5015307;28;20203;-79
2023/09/07 06:52:13;;;;;;;5.63;5.33;;;;;;;18.71;85.34;101064.47;5015527;28;20283;-81
2023/09/07 06:54:39;;;;;;;5.77;5.37;;;;;;;18.62;85.40;101062.19;5016154;28;20297;-81
2023/09/07 06:57:07;;;;;;;6.80;6.30;;;;;;;18.62;85.96;101052.47;5015861;28;20763;-83
2023/09/07 06:59:34;;;;;;;6.30;5.90;;;;;;;18.57;86.58;101041.25;5015926;28;20639;-83
2023/09/07 07:02:00;;;;;;;5.87;5.47;;;;;;;18.44;87.64;101026.81;5015738;28;20207;-81
2023/09/07 07:04:27;;;;;;;6.80;6.30;;;;;;;18.44;88.52;101003.88;5023824;28;20252;-80
2023/09/07 07:06:54;;;;;;;6.43;5.93;;;;;;;18.37;89.37;100988.34;5024166;28;20272;-79
2023/09/07 07:09:21;;;;;;;6.10;5.50;;;;;;;18.31;90.48;100967.47;5023278;28;20242;-83
2023/09/07 07:11:49;;;;;;;7.47;6.97;;;;;;;18.20;90.96;100947.66;5018505;28;20206;-81
2023/09/07 07:14:16;;;;;;;7.13;6.53;;;;;;;18.33;90.60;100955.91;5021175;28;20208;-81
2023/09/07 07:16:42;;;;;;;8.60;7.80;;;;;;;18.48;89.80;100970.25;5016193;28;20550;-82
2023/09/07 07:19:09;;;;;;;9.93;9.23;;;;;;;18.68;87.28;101002.91;5015680;28;20207;-82
2023/09/07 07:21:36;;;;;;;10.23;9.23;;;;;;;18.86;84.46;101062.97;5025109;28;20203;-80
2023/09/07 07:24:06;;;;;;;10.47;9.37;;;;;;;19.02;83.10;101106.34;5016234;28;20655;-83
2023/09/07 07:26:32;;;;;;;10.83;9.73;;;;;;;19.17;82.42;101133.94;5017279;28;20265;-82
2023/09/07 07:28:58;;;;;;;14.07;9.97;;;;;;;19.31;81.02;101172.19;5016163;28;20202;-79
2023/09/07 07:31:25;;;;;;;10.07;9.27;;;;;;;19.42;80.49;101189.31;5016295;28;20265;-80
2023/09/07 07:33:51;;;;;;;8.87;8.07;;;;;;;19.52;80.65;101202.97;5015130;28;20222;-84
2023/09/07 07:36:18;;;;;;;10.13;9.23;;;;;;;19.62;80.05;101221.97;5016861;28;20278;-83
2023/09/07 07:38:44;;;;;;;8.83;8.23;;;;;;;19.69;79.21;101230.53;5013160;28;20203;-82
2023/09/07 07:41:12;;;;;;;9.20;8.50;;;;;;;19.80;79.71;101231.81;5015157;28;20210;-81
2023/09/07 07:43:38;;;;;;;8.07;7.40;;;;;;;19.87;79.12;101252.72;5014796;28;20226;-81
2023/09/07 07:46:07;;;;;;;9.23;8.53;;;;;;;19.91;79.17;101257.81;5024428;28;20711;-81
2023/09/07 07:48:35;;;;;;;9.47;8.53;;;;;;;19.96;80.03;101242.56;5023634;28;20252;-82
2023/09/07 07:51:04;;;;;;;8.93;8.23;;;;;;;19.97;81.37;101219.56;5024244;28;20241;-83
2023/09/07 07:53:30;;;;;;;8.53;7.80;;;;;;;20.07;80.79;101212.06;5018652;28;20918;-81
2023/09/07 07:55:57;;;;;;;8.97;8.10;;;;;;;20.17;80.04;101232.75;5024232;28;20285;-80
2023/09/07 07:58:25;;;;;;;8.23;7.53;;;;;;;20.23;79.61;101234.28;5018687;28;20268;-81
2023/09/07 08:00:51;;;;;;;7.73;7.13;;;;;;;20.27;79.92;101233.19;5013976;28;20366;-85
2023/09/07 08:03:17;;;;;;;8.27;7.63;;;;;;;20.28;82.96;101203.13;5011571;28;20234;-85
2023/09/07 08:05:44;;;;;;;8.00;7.40;;;;;;;20.35;83.00;101162.09;5018819;28;20609;-82
2023/09/07 08:08:11;;;;;;;7.20;6.70;;;;;;;20.51;81.38;101167.50;5025764;28;20201;-84
2023/09/07 08:10:37;;;;;;;8.87;8.07;;;;;;;20.61;79.77;101208.63;5019088;28;20207;-83
2023/09/07 08:13:04;;;;;;;7.43;6.73;;;;;;;20.65;82.47;101166.88;5016004;28;20230;-82
2023/09/07 08:15:33;;;;;;;8.33;7.63;;;;;;;20.78;79.40;101209.59;5016674;28;20226;-83
2023/09/07 08:17:59;;;;;;;7.30;6.77;;;;;;;20.79;80.97;101185.63;5008336;28;20253;-83
2023/09/07 08:20:26;;;;;;;7.87;7.00;;;;;;;20.86;79.27;101217.19;5016508;28;20270;-83
2023/09/07 08:22:53;;;;;;;8.70;7.23;;;;;;;20.90;80.31;101216.09;5014074;28;20222;-81
2023/09/07 08:25:20;;;;;;;7.73;7.13;;;;;;;20.96;80.88;101207.81;5016019;28;20250;-82
2023/09/07 08:27:47;;;;;;;7.97;7.27;;;;;;;21.08;81.87;101178.00;5017058;28;20206;-83
2023/09/07 08:30:15;;;;;;;7.87;7.27;;;;;;;21.20;79.76;101193.28;5016593;28;20202;-80
2023/09/07 08:32:44;;;;;;;7.73;7.13;;;;;;;21.31;77.76;101245.88;5016052;28;20262;-81
2023/09/07 08:35:12;;;;;;;7.73;7.13;;;;;;;21.35;79.18;101236.78;5015853;28;20535;-83
2023/09/07 08:37:39;;;;;;;7.50;6.97;;;;;;;21.42;79.43;101213.41;5016440;28;20763;-84
2023/09/07 08:40:08;;;;;;;15.00;7.57;;;;;;;21.52;77.26;101264.31;5024699;28;20202;-84
2023/09/07 08:42:37;;;;;;;7.67;7.17;;;;;;;21.56;79.43;101244.63;5016446;28;20637;-83
2023/09/07 08:45:06;;;;;;;8.30;7.70;;;;;;;21.68;78.56;101243.97;5021668;28;20287;-81
2023/09/07 08:47:34;;;;;;;7.27;6.77;;;;;;;21.80;75.72;101299.16;5019369;28;20203;-82
2023/09/07 08:50:06;;;;;;;7.47;6.87;;;;;;;21.88;74.22;101354.56;5015886;28;20213;-81
2023/09/07 08:52:32;;;;;;;7.50;6.80;;;;;;;21.95;73.46;101384.34;5019057;28;20226;-81
2023/09/07 08:55:00;;;;;;;7.90;7.13;;;;;;;22.02;73.25;101404.34;5019099;28;20719;-81
2023/09/07 08:57:28;;;;;;;7.47;6.97;;;;;;;22.08;72.45;101424.47;5019547;28;20261;-81
2023/09/07 08:59:54;;;;;;;7.00;6.40;;;;;;;22.16;71.98;101432.91;5019320;28;20257;-81
2023/09/07 09:02:21;;;;;;;12.03;7.47;;;;;;;22.22;71.92;101448.56;5019033;28;20277;-85
2023/09/07 09:04:47;;;;;;;7.40;6.80;;;;;;;22.27;70.91;101467.81;5018440;28;20227;-82
2023/09/07 09:07:15;;;;;;;7.73;7.20;;;;;;;22.33;70.29;101488.78;5024660;28;20260;-81
2023/09/07 09:09:41;;;;;;;7.10;6.50;;;;;;;22.41;70.98;101477.75;5028318;28;20573;-82
2023/09/07 09:12:08;;;;;;;7.77;7.17;;;;;;;22.46;70.97;101470.41;5019388;28;20210;-82
2023/09/07 09:14:35;;;;;;;7.70;6.90;;;;;;;22.55;70.12;101485.00;5018966;28;20234;-81
2023/09/07 09:17:02;;;;;;;7.63;7.03;;;;;;;22.61;69.21;101508.63;5019105;28;20214;-82
2023/09/07 09:19:33;;;;;;;7.70;7.00;;;;;;;22.67;69.65;101516.28;5026917;28;20214;-82
2023/09/07 09:21:59;;;;;;;7.73;7.23;;;;;;;22.71;71.36;101461.09;5011092;28;20203;-81
2023/09/07 09:24:27;;;;;;;9.40;6.57;;;;;;;22.79;70.12;101483.72;5018942;28;20234;-81
2023/09/07 09:26:53;;;;;;;7.70;7.00;;;;;;;22.88;69.32;101494.81;5016105;28;20708;-81
2023/09/07 09:29:25;;;;;;;7.37;6.67;;;;;;;22.91;70.65;101465.34;5017742;28;20773;-82
2023/09/07 09:31:52;;;;;;;7.30;6.60;;;;;;;23.00;68.32;101502.13;5018337;28;20692;-79
2023/09/07 09:34:19;;;;;;;7.90;7.13;;;;;;;23.05;70.33;101485.94;5019168;28;20206;-81
2023/09/07 09:36:45;;;;;;;6.30;5.80;;;;;;;23.14;68.96;101470.31;5019933;28;20249;-80
2023/09/07 09:39:23;;;;;;;6.43;5.83;;;;;;;23.23;67.64;101516.91;5020622;28;20203;-81
2023/09/07 09:41:51;;;;;;;7.00;6.40;;;;;;;23.31;67.65;101529.78;5023087;28;20331;-82
2023/09/07 09:44:17;;;;;;;6.00;5.60;;;;;;;23.37;67.25;101543.66;5026482;28;20210;-81
2023/09/07 09:46:46;;;;;;;7.50;6.73;;;;;;;23.40;67.32;101539.94;5027768;28;20227;-81
2023/09/07 09:49:14;;;;;;;6.30;5.80;;;;;;;23.50;65.19;101570.47;5032614;28;20186;-81
2023/09/07 09:51:43;;;;;;;7.07;5.77;;;;;;;23.58;64.16;101602.03;5030182;28;20207;-82
2023/09/07 09:54:09;;;;;;;9.03;6.00;;;;;;;23.66;63.92;101622.94;5035969;28;20223;-81
2023/09/07 09:56:36;;;;;;;7.20;6.47;;;;;;;23.72;63.61;101644.78;5024195;28;20203;-83
2023/09/07 09:59:04;;;;;;;6.30;5.90;;;;;;;23.81;62.67;101663.94;5034489;28;20211;-83
2023/09/07 10:01:31;;;;;;;8.53;5.53;;;;;;;23.87;62.04;101674.25;5016853;28;20586;-81
2023/09/07 10:03:59;;;;;;;6.03;5.50;;;;;;;23.92;61.75;101694.38;5016827;28;20250;-83
2023/09/07 10:06:29;;;;;;;6.40;5.80;;;;;;;23.95;62.76;101678.22;5018336;28;20227;-81
2023/09/07 10:08:59;;;;;;;5.73;5.23;;;;;;;24.02;61.05;101716.06;5016765;28;20208;-81
2023/09/07 10:11:32;;;;;;;5.80;5.40;;;;;;;24.11;62.16;101688.88;5017693;28;20211;-80
2023/09/07 10:13:59;;;;;;;5.93;5.10;;;;;;;24.18;63.01;101671.59;5017604;28;20250;-81
2023/09/07 10:16:27;;;;;;;6.23;4.97;;;;;;;24.33;63.18;101661.84;5024740;28;20226;-82
2023/09/07 10:18:54;;;;;;;5.70;5.30;;;;;;;24.43;62.38;101658.66;5020437;28;20241;-80
2023/09/07 10:21:21;;;;;;;6.70;5.90;;;;;;;24.50;61.21;101670.69;5028532;28;20210;-79
2023/09/07 10:23:52;;;;;;;6.37;5.77;;;;;;;24.52;61.02;101683.03;5019106;28;20230;-81
2023/09/07 10:26:21;;;;;;;6.20;5.70;;;;;;;24.59;59.23;101728.94;5017311;28;20256;-83
2023/09/07 10:28:49;;;;;;;7.27;6.40;;;;;;;24.64;59.66;101734.00;5017640;28;20238;-83
2023/09/07 10:31:17;;;;;;;6.10;5.53;;;;;;;24.71;61.86;101706.00;5022539;28;20205;-83
2023/09/07 10:33:46;;;;;;;6.00;5.60;;;;;;;24.84;59.95;101701.66;5019185;28;20226;-81
2023/09/07 10:36:21;;;;;;;6.03;5.53;;;;;;;24.93;57.86;101737.66;5017490;28;20207;-82
2023/09/07 10:38:48;;;;;;;5.90;5.50;;;;;;;24.97;58.17;101779.25;5017551;28;20309;-82
2023/09/07 10:41:14;;;;;;;6.83;5.10;;;;;;;25.03;58.38;101751.31;5017820;28;20205;-83
2023/09/07 10:43:48;;;;;;;5.77;5.23;;;;;;;25.11;57.21;101770.44;5016442;28;20238;-83
2023/09/07 10:46:15;;;;;;;5.50;5.10;;;;;;;25.18;57.94;101775.31;5017358;28;20302;-83
2023/09/07 10:48:42;;;;;;;6.13;5.60;;;;;;;25.23;57.86;101782.25;5016719;28;20215;-83
2023/09/07 10:51:10;;;;;;;6.17;5.67;;;;;;;25.35;56.22;101778.84;5021205;28;20203;-81
2023/09/07 10:53:37;;;;;;;6.80;6.30;;;;;;;25.44;55.72;101804.19;5028395;28;20234;-84
2023/09/07 10:56:05;;;;;;;6.43;5.80;;;;;;;25.51;55.54;101830.47;5020925;28;20207;-83
2023/09/07 10:58:33;;;;;;;6.10;5.70;;;;;;;25.58;56.95;101803.34;5028825;28;20743;-83
2023/09/07 11:01:00;;;;;;;6.50;5.97;;;;;;;25.61;55.40;101812.03;5018245;28;20215;-81
2023/09/07 11:03:28;;;;;;;5.13;4.83;;;;;;;25.76;54.30;101829.81;5017768;28;20224;-82
2023/09/07 11:05:58;;;;;;;5.60;5.23;;;;;;;25.87;55.66;101833.66;5018508;28;20597;-83
2023/09/07 11:08:27;;;;;;;5.73;5.33;;;;;;;26.01;53.10;101856.94;5018758;28;20211;-83
2023/09/07 11:10:54;;;;;;;7.70;5.17;;;;;;;26.10;52.79;101878.63;5018063;28;20210;-83
2023/09/07 11:13:21;;;;;;;5.20;4.80;;;;;;;26.22;52.74;101884.19;5019009;28;20234;-77
2023/09/07 11:15:47;;;;;;;5.67;5.17;;;;;;;26.35;54.97;101880.63;5027163;28;20209;-79
2023/09/07 11:18:14;;;;;;;5.93;4.97;;;;;;;26.51;57.33;101789.47;5027562;28;20208;-80
2023/09/07 11:20:40;;;;;;;5.07;4.67;;;;;;;26.75;54.81;101768.28;5028237;28;20326;-85
2023/09/07 11:23:08;;;;;;;5.47;5.07;;;;;;;26.95;52.46;101833.94;5027759;28;20233;-80
2023/09/07 11:25:37;;;;;;;5.73;5.23;;;;;;;27.16;55.70;101820.09;5028467;28;20238;-79
2023/09/07 11:28:04;;;;;;;5.80;5.30;;;;;;;27.42;56.56;101762.03;5036943;28;20209;-80